Time;durP1;ratioP1;P1;durP2;ratioP2;P2;SDS_P1;SDS_P2;PMS_P1;PMS_P2;Temp;Humidity;BMP_temperature;BMP_pressure;BME280_temperature;BME280_humidity;BME280_pressure;Samples;Min_cycle;Max_cycle;Signal;HPM_P1;HPM_P2
2022/03/09 00:02:23;;;;;;;1.30;1.20;;;20.30;39.00;;;;;;5077051;27;43802;-63
2022/03/09 00:04:50;;;;;;;1.00;1.00;;;20.20;39.00;;;;;;5085327;27;43560;-63
2022/03/09 00:07:18;;;;;;;1.33;1.20;;;20.20;39.00;;;;;;5085780;27;43404;-62
2022/03/09 00:09:45;;;;;;;1.50;1.30;;;20.20;39.00;;;;;;5086173;27;43640;-62
2022/03/09 00:12:13;;;;;;;0.98;0.98;;;20.20;39.10;;;;;;5085599;27;44042;-62
2022/03/09 00:14:41;;;;;;;1.15;1.05;;;20.20;39.00;;;;;;5085558;27;43496;-63
2022/03/09 00:17:09;;;;;;;1.17;1.17;;;20.10;39.00;;;;;;5085843;27;43422;-62
2022/03/09 00:19:37;;;;;;;1.00;1.00;;;20.10;39.00;;;;;;5085701;27;43573;-63
2022/03/09 00:22:04;;;;;;;1.40;1.30;;;20.10;39.00;;;;;;5085535;28;43793;-63
2022/03/09 00:24:33;;;;;;;4.10;1.55;;;20.10;39.10;;;;;;5084328;28;43483;-63
2022/03/09 00:27:00;;;;;;;1.20;1.20;;;20.10;39.20;;;;;;5085688;27;43432;-63
2022/03/09 00:29:30;;;;;;;1.15;1.10;;;20.10;39.20;;;;;;5076137;27;43518;-62
2022/03/09 00:31:58;;;;;;;2.03;1.23;;;20.00;39.10;;;;;;5083642;28;44983;-62
2022/03/09 00:34:26;;;;;;;0.75;0.75;;;20.00;39.20;;;;;;5085154;27;43707;-63
2022/03/09 00:36:54;;;;;;;1.10;1.10;;;20.00;39.10;;;;;;5085490;27;43494;-63
2022/03/09 00:39:21;;;;;;;1.10;1.10;;;20.00;39.20;;;;;;5083885;28;43501;-63
2022/03/09 00:41:48;;;;;;;0.90;0.90;;;20.00;39.20;;;;;;5084979;27;45345;-63
2022/03/09 00:44:16;;;;;;;1.20;1.20;;;20.00;39.20;;;;;;5084116;28;43461;-63
2022/03/09 00:46:44;;;;;;;1.20;1.10;;;19.90;39.20;;;;;;5085408;27;43475;-63
2022/03/09 00:49:11;;;;;;;1.50;1.30;;;19.90;39.20;;;;;;5084355;28;43521;-63
2022/03/09 00:51:39;;;;;;;1.02;0.93;;;19.90;39.20;;;;;;5084796;27;44796;-63
2022/03/09 00:54:07;;;;;;;1.30;1.20;;;19.90;39.20;;;;;;5083921;27;43658;-63
2022/03/09 00:56:37;;;;;;;1.40;1.30;;;19.80;39.10;;;;;;5081986;27;43405;-63
2022/03/09 00:59:05;;;;;;;1.10;1.10;;;19.90;39.20;;;;;;5085043;27;43454;-63
2022/03/09 01:01:32;;;;;;;1.20;1.10;;;19.90;39.20;;;;;;5084784;27;44693;-63
2022/03/09 01:04:00;;;;;;;1.00;1.00;;;19.80;39.10;;;;;;5082876;28;43539;-63
2022/03/09 01:06:27;;;;;;;1.00;1.00;;;19.80;39.10;;;;;;5085023;27;43396;-64
2022/03/09 01:08:57;;;;;;;1.20;1.10;;;19.80;39.10;;;;;;5085115;28;43457;-63
2022/03/09 01:11:24;;;;;;;0.95;0.95;;;19.80;39.10;;;;;;5084804;27;43789;-63
2022/03/09 01:13:52;;;;;;;1.35;1.17;;;19.70;39.00;;;;;;5084165;27;43506;-63
2022/03/09 01:16:19;;;;;;;1.35;1.20;;;19.70;39.10;;;;;;5084533;27;43398;-63
2022/03/09 01:18:47;;;;;;;1.10;1.10;;;19.70;39.00;;;;;;5079888;28;43471;-63
2022/03/09 01:21:14;;;;;;;1.20;1.10;;;19.70;39.00;;;;;;5084767;27;44980;-63
2022/03/09 01:23:45;;;;;;;1.08;1.08;;;19.70;39.00;;;;;;5084278;27;43549;-64
2022/03/09 01:26:13;;;;;;;1.10;1.10;;;19.70;39.00;;;;;;5085100;28;43490;-63
2022/03/09 01:28:40;;;;;;;1.33;1.23;;;19.70;39.10;;;;;;5085131;27;43470;-63
2022/03/09 01:31:07;;;;;;;1.40;1.30;;;19.70;39.00;;;;;;5082939;28;44723;-64
2022/03/09 01:33:35;;;;;;;0.95;0.95;;;19.70;39.00;;;;;;5083640;27;43469;-63
2022/03/09 01:36:03;;;;;;;0.93;0.93;;;19.60;39.10;;;;;;5081716;27;43393;-63
2022/03/09 01:38:31;;;;;;;1.23;1.23;;;19.60;39.00;;;;;;5084905;27;44127;-63
2022/03/09 01:40:59;;;;;;;1.00;1.00;;;19.70;39.00;;;;;;5084506;28;43792;-63
2022/03/09 01:43:26;;;;;;;1.10;1.10;;;19.60;39.00;;;;;;5084174;27;43449;-63
2022/03/09 01:45:54;;;;;;;1.02;0.98;;;19.60;39.00;;;;;;5084670;27;44026;-63
2022/03/09 01:48:22;;;;;;;1.00;1.00;;;19.60;39.00;;;;;;5084698;27;43434;-63
2022/03/09 01:50:49;;;;;;;1.00;1.00;;;19.50;39.20;;;;;;5084242;27;43771;-63
2022/03/09 01:53:18;;;;;;;1.50;1.40;;;19.50;39.20;;;;;;5083791;27;43769;-63
2022/03/09 01:55:45;;;;;;;1.30;1.20;;;19.50;39.10;;;;;;5083745;28;43464;-63
2022/03/09 01:58:13;;;;;;;1.10;1.10;;;19.50;39.20;;;;;;5083993;27;43475;-62
2022/03/09 02:00:41;;;;;;;1.02;1.02;;;19.50;39.00;;;;;;5082936;28;46113;-63
2022/03/09 02:03:08;;;;;;;1.05;1.05;;;19.50;39.20;;;;;;5075427;27;43964;-63
2022/03/09 02:05:36;;;;;;;1.50;1.38;;;19.40;39.20;;;;;;5083989;27;43501;-63
2022/03/09 02:10:51;;;;;;;1.17;1.15;;;19.40;39.30;;;;;;5083568;28;44061;-63
2022/03/09 02:13:19;;;;;;;1.00;1.00;;;19.40;39.30;;;;;;5082080;28;43995;-63
2022/03/09 02:15:46;;;;;;;1.10;1.10;;;19.40;39.20;;;;;;5083730;27;43479;-63
2022/03/09 02:18:14;;;;;;;1.10;1.10;;;19.40;39.30;;;;;;5083485;27;43438;-62
2022/03/09 02:20:44;;;;;;;1.00;1.00;;;19.40;39.30;;;;;;5082131;28;44069;-63
2022/03/09 02:23:13;;;;;;;1.00;1.00;;;19.40;39.20;;;;;;5083805;27;43724;-63
2022/03/09 02:25:43;;;;;;;1.00;1.00;;;19.30;39.80;;;;;;5083460;28;43490;-63
2022/03/09 02:28:10;;;;;;;0.93;0.93;;;19.30;39.20;;;;;;5083687;27;43527;-63
2022/03/09 02:30:37;;;;;;;1.10;1.10;;;19.30;39.10;;;;;;5081398;28;43795;-63
2022/03/09 02:33:05;;;;;;;1.40;1.30;;;19.30;39.20;;;;;;5083822;27;43546;-62
2022/03/09 02:35:33;;;;;;;1.30;1.20;;;19.30;39.20;;;;;;5083501;27;43766;-63
2022/03/09 02:38:00;;;;;;;1.25;1.20;;;19.30;39.10;;;;;;5083672;27;43508;-63
2022/03/09 02:40:28;;;;;;;1.20;1.20;;;19.30;39.20;;;;;;5081843;28;44011;-63
2022/03/09 02:42:55;;;;;;;1.40;1.30;;;19.20;39.20;;;;;;5081860;28;43418;-63
2022/03/09 02:45:23;;;;;;;1.38;1.27;;;19.30;39.20;;;;;;5083424;27;43438;-63
2022/03/09 02:47:50;;;;;;;1.40;1.30;;;19.20;39.20;;;;;;5083337;27;43473;-63
2022/03/09 02:50:18;;;;;;;1.23;1.15;;;19.20;39.20;;;;;;5083367;27;43797;-63
2022/03/09 02:52:45;;;;;;;1.23;1.13;;;19.20;39.30;;;;;;5083124;27;43466;-63
2022/03/09 02:55:14;;;;;;;1.30;1.20;;;19.20;39.30;;;;;;5082859;27;43490;-63
2022/03/09 02:57:42;;;;;;;1.27;1.20;;;19.10;39.20;;;;;;5083675;27;43411;-63
2022/03/09 03:00:11;;;;;;;1.13;1.13;;;19.10;39.30;;;;;;5083280;27;44627;-63
2022/03/09 03:02:39;;;;;;;1.40;1.30;;;19.10;39.40;;;;;;5081291;27;43850;-63
2022/03/09 03:05:08;;;;;;;1.40;1.30;;;19.10;39.20;;;;;;5083447;27;43497;-63
2022/03/09 03:07:35;;;;;;;1.40;1.25;;;19.10;39.20;;;;;;5083417;27;43547;-63
2022/03/09 03:10:04;;;;;;;1.02;1.02;;;19.10;39.20;;;;;;5065832;28;44818;-63
2022/03/09 03:12:31;;;;;;;1.50;1.40;;;19.10;39.20;;;;;;5082964;27;43671;-63
2022/03/09 03:14:59;;;;;;;1.10;1.10;;;19.10;39.20;;;;;;5082734;27;43432;-63
2022/03/09 03:17:26;;;;;;;1.05;1.05;;;19.10;39.30;;;;;;5083343;27;43434;-64
2022/03/09 03:19:54;;;;;;;1.60;1.50;;;19.00;39.30;;;;;;5076387;27;43805;-64
2022/03/09 03:22:21;;;;;;;1.40;1.30;;;19.00;39.20;;;;;;5086499;27;43463;-63
2022/03/09 03:24:49;;;;;;;1.13;1.13;;;19.00;39.20;;;;;;5086763;27;43483;-63
2022/03/09 03:27:17;;;;;;;1.48;1.27;;;19.00;39.20;;;;;;5085666;28;43406;-63
2022/03/09 03:29:44;;;;;;;1.40;1.30;;;19.00;39.20;;;;;;5080129;28;43849;-64
2022/03/09 03:32:12;;;;;;;1.25;1.20;;;19.00;39.10;;;;;;5085941;27;43467;-63
2022/03/09 03:34:39;;;;;;;1.48;1.38;;;19.00;39.20;;;;;;5085907;28;43441;-63
2022/03/09 03:37:07;;;;;;;1.30;1.27;;;19.00;39.10;;;;;;5086355;27;43364;-63
2022/03/09 03:39:35;;;;;;;1.40;1.30;;;19.00;39.20;;;;;;5080176;28;44006;-63
2022/03/09 03:42:03;;;;;;;1.42;1.33;;;18.90;39.20;;;;;;5086126;27;43700;-64
2022/03/09 03:44:30;;;;;;;1.20;1.20;;;18.90;39.20;;;;;;5082316;28;43471;-63
2022/03/09 03:46:58;;;;;;;1.35;1.25;;;18.90;39.20;;;;;;5083196;28;43458;-63
2022/03/09 03:49:25;;;;;;;1.45;1.35;;;18.90;39.20;;;;;;5081255;28;43949;-64
2022/03/09 03:51:55;;;;;;;1.20;1.20;;;18.90;39.20;;;;;;5084800;28;45200;-63
2022/03/09 03:54:23;;;;;;;1.33;1.23;;;18.90;39.10;;;;;;5085533;27;43870;-63
2022/03/09 03:56:50;;;;;;;1.30;1.23;;;18.90;39.20;;;;;;5085894;27;43536;-63
2022/03/09 03:59:18;;;;;;;1.35;1.30;;;18.90;39.20;;;;;;5086094;27;43787;-63
2022/03/09 04:01:45;;;;;;;1.27;1.20;;;18.90;39.20;;;;;;5081159;27;43682;-63
2022/03/09 04:04:13;;;;;;;1.27;1.17;;;18.80;39.00;;;;;;5082926;28;43474;-63
2022/03/09 04:06:40;;;;;;;1.42;1.33;;;18.80;39.10;;;;;;5083924;28;43508;-63
2022/03/09 04:09:08;;;;;;;1.30;1.20;;;18.80;39.10;;;;;;5085400;27;43876;-64
2022/03/09 04:11:35;;;;;;;1.40;1.30;;;18.80;39.10;;;;;;5084493;28;43404;-63
2022/03/09 04:14:03;;;;;;;1.50;1.40;;;18.80;39.10;;;;;;5084716;27;43397;-64
2022/03/09 04:16:31;;;;;;;1.42;1.33;;;18.80;39.10;;;;;;5085503;27;43471;-63
2022/03/09 04:18:59;;;;;;;1.35;1.33;;;18.80;39.20;;;;;;5085089;27;44070;-63
2022/03/09 04:21:26;;;;;;;1.42;1.33;;;18.80;39.20;;;;;;5085535;28;43474;-64
2022/03/09 04:23:55;;;;;;;1.48;1.38;;;18.70;39.20;;;;;;5085272;27;43994;-63
2022/03/09 04:26:22;;;;;;;1.48;1.40;;;18.70;39.20;;;;;;5085662;27;43479;-63
2022/03/09 04:28:49;;;;;;;1.63;1.52;;;18.70;39.20;;;;;;5085788;27;43619;-63
2022/03/09 04:31:17;;;;;;;1.50;1.40;;;18.70;39.20;;;;;;5084430;27;43385;-62
2022/03/09 04:33:46;;;;;;;1.58;1.48;;;18.70;39.20;;;;;;5084253;28;43554;-63
2022/03/09 04:36:14;;;;;;;1.20;1.20;;;18.70;39.30;;;;;;5085391;27;43688;-63
2022/03/09 04:38:42;;;;;;;1.58;1.48;;;18.60;39.20;;;;;;5075243;28;43792;-63
2022/03/09 04:41:10;;;;;;;1.50;1.40;;;18.60;39.90;;;;;;5085402;27;43502;-63
2022/03/09 04:43:38;;;;;;;1.60;1.50;;;18.60;39.40;;;;;;5085161;27;43458;-63
2022/03/09 04:46:05;;;;;;;1.40;1.30;;;18.60;39.40;;;;;;5084263;28;43447;-63
2022/03/09 04:48:34;;;;;;;1.77;1.67;;;18.60;39.30;;;;;;5085410;27;45039;-63
2022/03/09 04:51:02;;;;;;;1.60;1.38;;;18.60;39.30;;;;;;5085311;27;43907;-63
2022/03/09 04:53:30;;;;;;;1.65;1.55;;;18.60;39.30;;;;;;5085239;27;43440;-63
2022/03/09 04:55:58;;;;;;;1.38;1.27;;;18.60;39.30;;;;;;5084768;28;43592;-63
2022/03/09 04:58:27;;;;;;;1.40;1.33;;;18.50;39.30;;;;;;5085127;27;44658;-63
2022/03/09 05:00:54;;;;;;;1.45;1.40;;;18.50;39.40;;;;;;5085410;27;43995;-64
2022/03/09 05:03:22;;;;;;;1.50;1.40;;;18.50;39.40;;;;;;5083106;28;43440;-63
2022/03/09 05:05:49;;;;;;;1.33;1.33;;;18.50;39.30;;;;;;5084956;28;43630;-63
2022/03/09 05:08:17;;;;;;;1.48;1.38;;;18.50;39.40;;;;;;5084817;27;44772;-63
2022/03/09 05:10:45;;;;;;;1.60;1.50;;;18.50;39.30;;;;;;5085085;27;43529;-63
2022/03/09 05:13:12;;;;;;;1.80;1.40;;;18.50;39.40;;;;;;5084438;28;43437;-63
2022/03/09 05:15:40;;;;;;;1.50;1.40;;;18.50;39.40;;;;;;5083068;28;43418;-63
2022/03/09 05:18:07;;;;;;;1.63;1.52;;;18.50;39.40;;;;;;5084492;27;43921;-63
2022/03/09 05:20:34;;;;;;;1.70;1.60;;;18.50;39.40;;;;;;5084685;27;43739;-63
2022/03/09 05:23:02;;;;;;;1.75;1.65;;;18.40;39.40;;;;;;5084653;27;43459;-63
2022/03/09 05:25:31;;;;;;;1.63;1.52;;;18.40;39.40;;;;;;5084416;27;43509;-63
2022/03/09 05:28:01;;;;;;;1.80;1.70;;;18.40;39.40;;;;;;5084478;27;45051;-63
2022/03/09 05:30:30;;;;;;;1.58;1.48;;;18.40;39.50;;;;;;5084046;27;43471;-63
2022/03/09 05:32:58;;;;;;;1.60;1.50;;;18.40;39.50;;;;;;5084414;27;43419;-63
2022/03/09 05:35:25;;;;;;;1.80;1.70;;;18.40;39.50;;;;;;5084067;27;43498;-62
2022/03/09 05:37:53;;;;;;;1.63;1.52;;;18.40;39.60;;;;;;5084468;27;43810;-62
2022/03/09 05:40:20;;;;;;;1.73;1.63;;;18.40;39.60;;;;;;5084476;27;43449;-63
2022/03/09 05:42:48;;;;;;;1.73;1.63;;;18.40;39.60;;;;;;5082941;27;43456;-63
2022/03/09 05:45:19;;;;;;;1.60;1.50;;;18.30;39.50;;;;;;5083891;28;43777;-62
2022/03/09 05:47:51;;;;;;;1.60;1.50;;;18.40;39.60;;;;;;5084075;27;44056;-63
2022/03/09 05:50:19;;;;;;;1.70;1.60;;;18.40;40.30;;;;;;5084484;28;43515;-63
2022/03/09 05:52:47;;;;;;;1.90;1.80;;;18.40;39.60;;;;;;5084142;27;44042;-63
2022/03/09 05:55:14;;;;;;;1.65;1.55;;;18.40;39.60;;;;;;5083618;27;43892;-64
2022/03/09 05:57:46;;;;;;;1.90;1.80;;;18.40;39.60;;;;;;5084125;27;44206;-64
2022/03/09 06:00:15;;;;;;;1.80;1.70;;;18.40;39.50;;;;;;5084047;27;43421;-63
2022/03/09 06:02:42;;;;;;;1.75;1.65;;;18.40;39.50;;;;;;5074934;28;43406;-63
2022/03/09 06:05:14;;;;;;;1.80;1.70;;;18.40;39.50;;;;;;5082901;28;43533;-63
2022/03/09 06:07:42;;;;;;;1.75;1.65;;;18.50;39.50;;;;;;5082145;27;43791;-63
2022/03/09 06:10:10;;;;;;;1.50;1.40;;;18.50;39.50;;;;;;5081125;28;43447;-63
2022/03/09 06:12:37;;;;;;;1.60;1.50;;;18.50;39.50;;;;;;5083506;28;43527;-63
2022/03/09 06:15:05;;;;;;;1.90;1.80;;;18.50;39.50;;;;;;5083965;28;43411;-63
2022/03/09 06:17:43;;;;;;;1.90;1.80;;;18.40;39.40;;;;;;5084184;27;44689;-63
2022/03/09 06:20:12;;;;;;;1.80;1.70;;;18.50;39.50;;;;;;5083237;27;43434;-62
2022/03/09 06:22:39;;;;;;;1.85;1.75;;;18.50;39.50;;;;;;5083888;27;43383;-64
2022/03/09 06:25:08;;;;;;;1.80;1.70;;;18.50;39.50;;;;;;5083390;27;43452;-64
2022/03/09 06:27:54;;;;;;;1.70;1.60;;;18.50;39.50;;;;;;5099366;27;43745;-63
2022/03/09 06:30:27;;;;;;;1.83;1.73;;;18.50;39.60;;;;;;5074569;28;43485;-64
2022/03/09 06:32:55;;;;;;;1.90;1.70;;;18.50;39.60;;;;;;5083938;27;43456;-63
2022/03/09 06:35:23;;;;;;;1.80;1.70;;;18.50;39.50;;;;;;5083528;27;43629;-63
2022/03/09 06:37:50;;;;;;;1.80;1.70;;;18.50;39.60;;;;;;5080329;28;43607;-63
2022/03/09 06:40:18;;;;;;;1.70;1.60;;;18.50;39.50;;;;;;5083335;28;43510;-64
2022/03/09 06:42:45;;;;;;;1.80;1.70;;;18.60;39.60;;;;;;5083146;27;43472;-63
2022/03/09 06:45:13;;;;;;;1.70;1.60;;;18.60;39.50;;;;;;5083389;28;43448;-63
2022/03/09 06:47:41;;;;;;;1.67;1.58;;;18.60;39.50;;;;;;5083433;27;43807;-63
2022/03/09 06:50:10;;;;;;;1.98;1.75;;;18.60;39.50;;;;;;5082144;28;43536;-63
2022/03/09 06:52:38;;;;;;;1.70;1.60;;;18.60;39.50;;;;;;5083497;27;43462;-62
2022/03/09 06:55:07;;;;;;;1.98;1.88;;;18.60;39.50;;;;;;5083236;28;43470;-63
2022/03/09 06:57:36;;;;;;;1.80;1.70;;;18.70;39.50;;;;;;5084477;28;44019;-63
2022/03/09 07:00:11;;;;;;;2.00;1.90;;;18.60;39.40;;;;;;5084812;28;43566;-64
2022/03/09 07:02:39;;;;;;;1.75;1.65;;;18.70;39.50;;;;;;5085357;28;44042;-63
2022/03/09 07:05:07;;;;;;;1.83;1.73;;;18.70;39.30;;;;;;5086517;27;43441;-63
2022/03/09 07:07:37;;;;;;;1.70;1.60;;;18.70;39.40;;;;;;5086091;27;45017;-63
2022/03/09 07:10:10;;;;;;;2.10;1.90;;;18.70;39.40;;;;;;5087055;27;43451;-64
2022/03/09 07:12:42;;;;;;;1.67;1.58;;;18.70;39.30;;;;;;5083834;27;43417;-63
2022/03/09 07:15:10;;;;;;;1.60;1.50;;;18.70;39.40;;;;;;5085591;28;43477;-63
2022/03/09 07:17:39;;;;;;;1.70;1.60;;;18.70;39.40;;;;;;5083467;28;43614;-63
2022/03/09 07:20:07;;;;;;;1.80;1.70;;;18.70;39.30;;;;;;5086285;28;43718;-63
2022/03/09 07:22:39;;;;;;;2.97;1.83;;;18.70;39.40;;;;;;5085510;28;43501;-60
2022/03/09 07:25:09;;;;;;;1.88;1.40;;;18.80;40.30;;;;;;5086665;27;43508;-63
2022/03/09 07:27:37;;;;;;;2.03;1.65;;;18.80;39.60;;;;;;5086683;27;43800;-62
2022/03/09 07:30:06;;;;;;;3.08;2.10;;;18.80;39.60;;;;;;5086635;28;43487;-61
2022/03/09 07:32:34;;;;;;;2.92;2.30;;;18.70;39.60;;;;;;5086295;27;44011;-63
2022/03/09 07:35:22;;;;;;;2.53;2.30;;;18.80;39.80;;;;;;5085834;28;43627;-63
2022/03/09 07:37:51;;;;;;;3.58;2.20;;;18.80;39.60;;;;;;5086412;28;45018;-63
2022/03/09 07:40:20;;;;;;;2.22;2.13;;;19.00;39.60;;;;;;5086439;28;43413;-63
2022/03/09 07:42:47;;;;;;;2.47;2.28;;;19.00;39.50;;;;;;5078670;27;43587;-63
2022/03/09 07:45:20;;;;;;;4.50;2.20;;;19.20;39.50;;;;;;5085051;27;43445;-63
2022/03/09 07:47:47;;;;;;;2.22;2.00;;;19.30;39.60;;;;;;5085473;27;43756;-63
2022/03/09 07:50:15;;;;;;;2.38;2.20;;;19.40;39.70;;;;;;5087699;27;43687;-63
2022/03/09 07:52:43;;;;;;;1.85;1.75;;;19.60;39.40;;;;;;5081185;27;43554;-61
2022/03/09 07:55:10;;;;;;;2.40;1.80;;;19.70;39.30;;;;;;5083283;27;43552;-62
2022/03/09 07:57:38;;;;;;;2.20;2.10;;;19.80;39.10;;;;;;5079167;27;44633;-62
2022/03/09 08:00:07;;;;;;;2.40;2.20;;;19.90;39.10;;;;;;5087892;27;43707;-62
2022/03/09 08:02:43;;;;;;;3.15;2.28;;;20.00;38.90;;;;;;5086535;27;43348;-63
2022/03/09 08:05:11;;;;;;;1.80;1.70;;;20.10;38.90;;;;;;5084349;27;43672;-62
2022/03/09 08:07:39;;;;;;;2.13;2.03;;;20.30;38.90;;;;;;5083454;27;43756;-61
2022/03/09 08:10:09;;;;;;;1.92;1.83;;;20.30;38.80;;;;;;5085282;27;43430;-63
2022/03/09 08:12:37;;;;;;;2.20;2.10;;;20.40;38.60;;;;;;5085253;27;43468;-63
2022/03/09 08:15:05;;;;;;;2.15;1.95;;;20.50;38.30;;;;;;5084355;27;43552;-63
2022/03/09 08:17:32;;;;;;;2.10;2.00;;;20.70;38.30;;;;;;5085095;27;43824;-62
2022/03/09 08:20:00;;;;;;;2.13;1.92;;;20.80;38.40;;;;;;5084325;27;43474;-64
2022/03/09 08:22:27;;;;;;;2.60;1.92;;;20.80;38.10;;;;;;5084813;27;43553;-62
2022/03/09 08:24:55;;;;;;;3.05;1.80;;;20.90;38.10;;;;;;5084656;27;43596;-63
2022/03/09 08:27:23;;;;;;;2.28;2.10;;;21.00;37.90;;;;;;5084598;27;43829;-62
2022/03/09 08:29:50;;;;;;;2.53;2.15;;;21.10;38.20;;;;;;5084844;27;43381;-62
2022/03/09 08:32:19;;;;;;;2.20;2.00;;;21.20;38.50;;;;;;5084154;27;43494;-63
2022/03/09 08:34:46;;;;;;;3.25;1.98;;;21.30;38.50;;;;;;5084134;27;43513;-63
2022/03/09 08:37:15;;;;;;;2.33;2.15;;;21.30;38.40;;;;;;5087290;27;44984;-63
2022/03/09 08:39:45;;;;;;;2.38;2.17;;;21.40;38.30;;;;;;5084839;27;43489;-63
2022/03/09 08:42:16;;;;;;;1.90;1.75;;;21.50;38.40;;;;;;5079211;27;43483;-63
2022/03/09 08:44:44;;;;;;;2.55;2.22;;;21.60;38.30;;;;;;5081158;27;43596;-63
2022/03/09 08:47:12;;;;;;;5.38;1.92;;;21.70;38.60;;;;;;5080773;27;44066;-61
2022/03/09 08:49:40;;;;;;;2.72;2.13;;;21.70;38.60;;;;;;5084388;27;43769;-61
2022/03/09 08:52:10;;;;;;;2.63;2.10;;;21.80;38.40;;;;;;5083319;27;43460;-61
2022/03/09 08:54:40;;;;;;;2.90;1.98;;;21.90;38.50;;;;;;5079108;27;43687;-62
2022/03/09 08:57:08;;;;;;;3.15;2.10;;;21.90;38.30;;;;;;5084232;27;44671;-60
2022/03/09 08:59:35;;;;;;;2.63;2.10;;;22.10;38.30;;;;;;5082724;27;43706;-62
2022/03/09 09:02:03;;;;;;;3.13;2.00;;;22.10;38.20;;;;;;5081578;27;43534;-61
2022/03/09 09:04:32;;;;;;;2.10;1.73;;;22.20;38.20;;;;;;5081314;27;43625;-61
2022/03/09 09:07:00;;;;;;;2.25;1.83;;;22.30;38.20;;;;;;5080965;27;44208;-60
2022/03/09 09:09:27;;;;;;;3.05;2.15;;;22.30;38.10;;;;;;5080909;27;43551;-65
2022/03/09 09:11:55;;;;;;;3.40;2.00;;;22.40;38.30;;;;;;5080143;27;43483;-62
2022/03/09 09:14:26;;;;;;;2.65;1.80;;;22.50;38.20;;;;;;5077017;27;43516;-61
2022/03/09 09:16:54;;;;;;;3.55;1.70;;;22.50;38.10;;;;;;5089243;27;44029;-61
2022/03/09 09:19:23;;;;;;;3.08;1.80;;;22.60;38.00;;;;;;5089318;27;43550;-61
2022/03/09 09:21:50;;;;;;;2.42;2.00;;;22.70;38.00;;;;;;5086527;27;43427;-61
2022/03/09 09:24:18;;;;;;;2.13;1.92;;;22.80;38.00;;;;;;5083704;27;43648;-61
2022/03/09 09:26:46;;;;;;;2.20;2.00;;;22.90;37.80;;;;;;5081971;27;44030;-62
2022/03/09 09:29:20;;;;;;;2.90;1.77;;;22.90;37.60;;;;;;5083216;27;43405;-62
2022/03/09 09:31:48;;;;;;;2.63;1.83;;;23.00;37.50;;;;;;5082722;27;43578;-61
2022/03/09 09:34:17;;;;;;;2.38;1.90;;;23.00;37.50;;;;;;5083286;27;43525;-62
2022/03/09 09:36:47;;;;;;;2.20;1.77;;;23.00;37.40;;;;;;5086523;27;43780;-62
2022/03/09 09:39:16;;;;;;;2.88;2.10;;;23.10;37.60;;;;;;5081671;27;43473;-61
2022/03/09 09:41:46;;;;;;;1.88;1.75;;;23.10;37.50;;;;;;5083125;27;43423;-61
2022/03/09 09:44:14;;;;;;;1.90;1.80;;;23.10;37.50;;;;;;5085811;27;43557;-61
2022/03/09 09:46:43;;;;;;;2.03;1.92;;;23.10;37.40;;;;;;5083055;27;44052;-62
2022/03/09 09:49:13;;;;;;;1.83;1.63;;;23.20;37.40;;;;;;5083283;27;43870;-62
2022/03/09 09:51:42;;;;;;;1.70;1.60;;;23.20;37.40;;;;;;5083048;27;43489;-61
2022/03/09 09:54:13;;;;;;;1.85;1.75;;;23.20;37.40;;;;;;5079683;27;43553;-61
2022/03/09 09:56:42;;;;;;;1.95;1.80;;;23.20;37.40;;;;;;5081324;27;44035;-61
2022/03/09 09:59:11;;;;;;;2.55;1.80;;;23.30;37.40;;;;;;5082632;27;43376;-62
2022/03/09 10:01:40;;;;;;;2.15;1.70;;;23.30;37.30;;;;;;5081398;27;44048;-62
2022/03/09 10:04:09;;;;;;;3.00;1.73;;;23.30;37.30;;;;;;5082505;27;43492;-62
2022/03/09 10:06:39;;;;;;;2.65;1.83;;;23.30;37.40;;;;;;5082474;27;44692;-61
2022/03/09 10:09:11;;;;;;;2.63;1.55;;;23.30;37.30;;;;;;5083247;27;43848;-62
2022/03/09 10:11:51;;;;;;;2.90;1.60;;;23.40;37.40;;;;;;5074355;27;43542;-61
2022/03/09 10:14:48;;;;;;;2.22;1.83;;;23.40;37.40;;;;;;5081272;27;43455;-61
2022/03/09 10:17:32;;;;;;;2.10;1.70;;;23.40;37.10;;;;;;5078140;27;44167;-62
2022/03/09 10:20:11;;;;;;;1.98;1.40;;;23.40;37.10;;;;;;5081108;27;43898;-62
2022/03/09 10:22:46;;;;;;;2.17;1.52;;;23.40;37.10;;;;;;5080879;27;43559;-62
2022/03/09 10:25:23;;;;;;;1.80;1.70;;;23.40;37.00;;;;;;5081955;27;43601;-61
2022/03/09 10:27:53;;;;;;;3.03;1.75;;;23.40;37.00;;;;;;5082823;27;45407;-62
2022/03/09 10:30:30;;;;;;;1.70;1.60;;;23.40;37.00;;;;;;5081665;27;43367;-61
2022/03/09 10:33:04;;;;;;;1.95;1.50;;;23.40;37.10;;;;;;5078871;27;43456;-61
2022/03/09 10:35:32;;;;;;;1.88;1.73;;;23.40;37.90;;;;;;5079355;27;43502;-61
2022/03/09 10:38:05;;;;;;;2.75;1.40;;;23.40;37.30;;;;;;5083194;27;43847;-62
2022/03/09 10:40:41;;;;;;;1.80;1.70;;;23.40;38.00;;;;;;5078106;27;43541;-62
2022/03/09 10:43:20;;;;;;;3.13;1.90;;;23.40;37.30;;;;;;5079475;27;43454;-61
2022/03/09 10:46:05;;;;;;;2.83;1.80;;;23.40;37.20;;;;;;5080294;27;43468;-61
2022/03/09 10:48:57;;;;;;;2.08;1.67;;;23.50;37.50;;;;;;5080505;27;43801;-61
2022/03/09 10:51:27;;;;;;;2.55;1.40;;;23.50;37.30;;;;;;5081733;27;44052;-61
2022/03/09 10:53:55;;;;;;;1.60;1.50;;;23.50;37.40;;;;;;5081171;27;43468;-61
2022/03/09 10:56:23;;;;;;;1.58;1.40;;;23.50;37.40;;;;;;5076190;27;43560;-61
2022/03/09 10:58:51;;;;;;;1.90;1.50;;;23.50;37.30;;;;;;5086572;27;44045;-61
2022/03/09 11:01:20;;;;;;;1.80;1.40;;;23.50;37.30;;;;;;5081147;27;43461;-62
2022/03/09 11:03:48;;;;;;;1.55;1.45;;;23.50;37.30;;;;;;5081281;27;43548;-61
2022/03/09 11:06:17;;;;;;;2.75;1.70;;;23.50;37.20;;;;;;5080541;27;43414;-61
2022/03/09 11:08:44;;;;;;;1.83;1.65;;;23.50;36.90;;;;;;5080350;27;44202;-61
2022/03/09 11:11:14;;;;;;;1.58;1.33;;;23.50;37.10;;;;;;5076972;27;43465;-61
2022/03/09 11:13:42;;;;;;;1.60;1.50;;;23.50;37.20;;;;;;5080364;27;43477;-63
2022/03/09 11:16:10;;;;;;;2.25;1.45;;;23.50;37.30;;;;;;5073689;27;43522;-61
2022/03/09 11:18:38;;;;;;;1.95;1.70;;;23.50;37.40;;;;;;5082201;27;44971;-61
2022/03/09 11:21:08;;;;;;;1.73;1.50;;;23.50;37.40;;;;;;5082164;27;43461;-61
2022/03/09 11:23:41;;;;;;;1.60;1.50;;;23.60;37.60;;;;;;5081448;27;43453;-62
2022/03/09 11:26:20;;;;;;;1.77;1.40;;;23.60;37.60;;;;;;5082319;27;43481;-62
2022/03/09 11:28:48;;;;;;;1.63;1.50;;;23.60;37.60;;;;;;5081913;27;44077;-61
2022/03/09 11:31:20;;;;;;;1.40;1.30;;;23.70;37.60;;;;;;5081157;27;43534;-62
2022/03/09 11:33:49;;;;;;;1.52;1.42;;;23.70;37.60;;;;;;5081085;27;43545;-62
2022/03/09 11:36:29;;;;;;;2.78;1.20;;;23.70;37.50;;;;;;5067221;27;43501;-62
2022/03/09 11:39:09;;;;;;;2.03;1.42;;;23.70;37.60;;;;;;5079020;27;44530;-63
2022/03/09 11:41:38;;;;;;;1.70;1.60;;;23.70;37.50;;;;;;5081996;27;43506;-63
2022/03/09 11:44:18;;;;;;;1.60;1.50;;;23.80;37.60;;;;;;5086353;27;43538;-62
2022/03/09 11:46:58;;;;;;;1.70;1.60;;;23.80;37.50;;;;;;5083779;27;43563;-63
2022/03/09 11:49:49;;;;;;;1.80;1.70;;;23.80;37.30;;;;;;5083080;27;45248;-62
2022/03/09 11:52:18;;;;;;;1.67;1.50;;;23.80;37.10;;;;;;5077372;27;44010;-62
2022/03/09 11:54:59;;;;;;;1.73;1.63;;;23.80;37.10;;;;;;5087523;27;43455;-62
2022/03/09 11:57:48;;;;;;;1.60;1.50;;;23.80;37.10;;;;;;5075361;27;43599;-62
2022/03/09 12:00:17;;;;;;;2.15;1.70;;;23.80;37.20;;;;;;5082231;27;43618;-62
2022/03/09 12:02:54;;;;;;;1.60;1.50;;;23.80;37.10;;;;;;5082004;27;43525;-62
2022/03/09 12:05:27;;;;;;;1.88;1.55;;;23.80;37.00;;;;;;5082564;27;43513;-62
2022/03/09 12:07:58;;;;;;;1.90;1.80;;;23.90;37.70;;;;;;5091386;27;43530;-62
2022/03/09 12:10:53;;;;;;;1.70;1.60;;;23.90;37.00;;;;;;5083191;27;43802;-61
2022/03/09 12:13:32;;;;;;;1.40;1.30;;;23.90;37.00;;;;;;5083107;27;43523;-62
2022/03/09 12:16:12;;;;;;;1.50;1.40;;;23.90;37.30;;;;;;5065750;27;43437;-62
2022/03/09 12:18:51;;;;;;;1.40;1.30;;;23.90;37.20;;;;;;5082294;27;43419;-62
2022/03/09 12:21:49;;;;;;;1.70;1.60;;;23.90;37.20;;;;;;5083247;27;43887;-63
2022/03/09 12:24:22;;;;;;;1.55;1.45;;;23.90;37.30;;;;;;5081037;27;43482;-62
2022/03/09 12:26:54;;;;;;;1.60;1.50;;;24.00;37.40;;;;;;5082640;27;43492;-62
2022/03/09 12:29:28;;;;;;;1.38;1.30;;;24.00;37.30;;;;;;5084845;27;43529;-62
2022/03/09 12:32:02;;;;;;;1.90;1.50;;;24.00;37.30;;;;;;5085013;27;44036;-63
2022/03/09 12:34:32;;;;;;;1.83;1.38;;;24.10;37.40;;;;;;5083385;27;43496;-62
2022/03/09 12:37:01;;;;;;;1.80;1.60;;;24.10;37.40;;;;;;5090167;27;43458;-61
2022/03/09 12:39:30;;;;;;;1.55;1.45;;;24.10;37.50;;;;;;5084617;27;43521;-63
2022/03/09 12:41:59;;;;;;;1.83;1.65;;;24.10;37.30;;;;;;5085107;27;44320;-61
2022/03/09 12:44:32;;;;;;;1.60;1.50;;;24.10;36.90;;;;;;5083874;27;43439;-62
2022/03/09 12:47:05;;;;;;;3.63;2.10;;;24.10;36.90;;;;;;5083995;27;43525;-62
2022/03/09 12:49:41;;;;;;;1.83;1.67;;;24.10;36.80;;;;;;5078825;27;43656;-62
2022/03/09 12:52:14;;;;;;;2.75;1.70;;;24.10;36.70;;;;;;5078081;27;44040;-62
2022/03/09 12:54:46;;;;;;;2.03;1.80;;;24.10;36.30;;;;;;5081853;27;44001;-62
2022/03/09 12:57:18;;;;;;;2.22;1.90;;;24.10;36.20;;;;;;5082043;27;43417;-62
2022/03/09 13:00:08;;;;;;;1.73;1.63;;;24.00;36.20;;;;;;5080956;27;43552;-61
2022/03/09 13:02:39;;;;;;;2.00;1.90;;;24.00;36.40;;;;;;5083425;27;43962;-61
2022/03/09 13:05:07;;;;;;;;;;;24.00;36.00;;;;;;5075367;27;43486;-62